Latest Weather Observations for Noarlunga

IDS60801

Issued at 2:31 pm CST Wednesday 29 July 2015 (issued every 30 minutes, with the page automatically refreshed every 10 minutes)

About weather observations | Map of weather stations | Latest weather observations for SA | Other Formats
Station Details ID: 023885 Name: NOARLUNGA Lat: -35.16 Lon: 138.51 Height: 55.0 m
Data from the previous 72 hours. | See also: Recent months at Noarlunga
Date/Time
CST
Temp
°C
App
Temp
°C
Dew
Point
Rel
Hum
%
Delta-T
°C
Wind Press
QNH
hPa
Press
MSL
hPa
Rain
since 9 am
mm
Dir
 
Spd
km/h
Gust
km/h
Spd
kts
Gust
kts
29/02:30pm 12.3 6.2 2.7 52 4.2 N 24 33 13 18 - - 0.0
29/02:00pm 11.6 5.6 3.1 56 3.7 N 24 37 13 20 - - 0.0
29/01:30pm 11.4 5.4 3.4 58 3.5 N 24 37 13 20 - - 0.0
29/01:00pm 11.3 5.3 3.6 59 3.4 N 24 37 13 20 - - 0.0
29/12:30pm 11.2 4.7 2.8 56 3.7 N 26 35 14 19 - - 0.0
29/12:00pm 11.4 6.2 2.7 55 3.8 N 19 28 10 15 - - 0.0
29/11:30am 11.0 5.9 3.1 58 3.5 N 19 28 10 15 - - 0.0
29/11:00am 10.4 5.2 2.3 57 3.5 N 19 32 10 17 - - 0.0
29/10:30am 10.4 5.0 2.5 58 3.4 N 20 28 11 15 - - 0.0
29/10:00am 10.0 4.7 2.1 58 3.3 N 19 26 10 14 - - 0.0
29/09:30am 9.8 4.5 1.9 58 3.3 N 19 30 10 16 - - 0.0
29/09:00am 9.6 3.7 1.8 58 3.3 N 22 33 12 18 - - 0.0
29/08:30am 9.5 4.0 1.7 58 3.3 N 20 30 11 16 - - 0.0
29/08:00am 9.4 3.9 1.6 58 3.2 N 20 32 11 17 - - 0.0
29/07:30am 9.3 5.1 1.7 59 3.2 N 13 22 7 12 - - 0.0
29/07:00am 9.3 4.7 1.5 58 3.2 NNE 15 24 8 13 - - 0.0
29/06:30am 9.3 4.3 1.5 58 3.2 NNE 17 28 9 15 - - 0.0
29/06:00am 9.1 4.5 1.8 60 3.0 NNE 15 24 8 13 - - 0.0
29/05:30am 9.0 4.8 1.7 60 3.0 N 13 20 7 11 - - 0.0
29/05:00am 8.9 5.1 2.0 62 2.9 N 11 17 6 9 - - 0.0
29/04:30am 9.1 4.9 1.8 60 3.0 NNE 13 19 7 10 - - 0.0
29/04:00am 8.6 4.8 2.0 63 2.7 NE 11 15 6 8 - - 0.0
29/03:30am 8.6 4.9 2.2 64 2.7 NE 11 15 6 8 - - 0.0
29/03:00am 8.9 5.6 2.3 63 2.8 NNE 9 13 5 7 - - 0.0
29/02:30am 8.6 4.9 2.4 65 2.6 NE 11 15 6 8 - - 0.0
29/02:00am 7.7 4.9 3.0 72 2.0 NE 7 9 4 5 - - 0.0
29/01:30am 8.6 5.4 2.8 67 2.5 ENE 9 13 5 7 - - 0.0
29/01:00am 9.3 6.1 3.3 66 2.6 NE 9 15 5 8 - - 0.0
29/12:30am 9.6 6.2 3.8 67 2.5 NE 11 15 6 8 - - 0.0
29/12:00am 9.3 6.4 4.5 72 2.1 NE 9 13 5 7 - - 0.0
 
Date/Time
CST
Temp
°C
App
Temp
°C
Dew
Point
Rel
Hum
%
Delta-T
°C
Wind Press
QNH
hPa
Press
MSL
hPa
Rain
since 9 am
mm
Dir
 
Spd
km/h
Gust
km/h
Spd
kts
Gust
kts
28/11:30pm 8.6 5.3 4.4 75 1.9 ENE 11 13 6 7 - - 0.0
28/11:00pm 8.3 5.9 4.1 75 1.8 NE 6 7 3 4 - - 0.0
28/10:30pm 8.9 6.0 4.5 74 1.9 ENE 9 11 5 6 - - 0.0
28/10:00pm 8.8 6.3 5.0 77 1.7 ENE 7 11 4 6 - - 0.0
28/09:30pm 8.1 5.6 5.0 81 1.4 E 7 9 4 5 - - 0.0
28/09:00pm 7.7 5.8 4.7 81 1.3 ENE 4 7 2 4 - - 0.0
28/08:30pm 8.2 6.0 5.3 82 1.3 E 6 7 3 4 - - 0.0
28/08:00pm 8.2 5.8 5.3 82 1.3 E 7 9 4 5 - - 0.0
28/07:30pm 8.8 6.5 5.5 80 1.5 E 7 11 4 6 - - 0.0
28/07:00pm 9.1 7.0 5.7 79 1.6 E 6 9 3 5 - - 0.0
28/06:30pm 9.4 8.4 5.4 76 1.8 CALM 0 0 0 0 - - 0.0
28/06:00pm 9.8 8.8 5.6 75 1.9 CALM 0 2 0 1 - - 0.0
28/05:30pm 10.4 9.4 5.4 71 2.3 CALM 0 4 0 2 - - 0.0
28/05:00pm 11.5 9.8 5.8 68 2.7 WNW 4 6 2 3 - - 0.0
28/04:30pm 12.0 10.3 5.9 66 2.9 NW 4 6 2 3 - - 0.0
28/04:00pm 11.6 9.5 5.7 67 2.7 NW 6 9 3 5 - - 0.0
28/03:30pm 12.0 9.4 5.9 66 2.9 NW 9 13 5 7 - - 0.0
28/03:00pm 11.9 9.2 5.8 66 2.9 NW 9 15 5 8 - - 0.0
28/02:30pm 12.6 9.6 6.0 64 3.1 NW 11 17 6 9 - - 0.0
28/02:00pm 13.0 10.5 6.4 64 3.2 NNW 9 17 5 9 - - 0.0
28/01:30pm 12.7 9.7 5.8 63 3.2 NNW 11 17 6 9 - - 0.0
28/01:00pm 12.2 9.2 5.8 65 3.0 NNW 11 17 6 9 - - 0.0
28/12:30pm 12.3 9.5 7.0 70 2.6 N 11 19 6 10 - - 0.0
28/12:00pm 12.2 9.5 7.3 72 2.4 N 11 17 6 9 - - 0.0
28/11:30am 11.3 8.6 7.4 77 1.9 N 11 17 6 9 - - 0.0
28/11:00am 10.8 8.0 7.1 78 1.8 N 11 17 6 9 - - 0.0
28/10:30am 10.7 7.3 7.6 81 1.5 N 15 19 8 10 - - 0.0
28/10:00am 10.4 7.8 7.8 84 1.3 NNE 11 15 6 8 - - 0.0
28/09:30am 10.1 7.9 8.0 87 1.0 NNE 9 15 5 8 - - 0.0
28/09:00am 8.9 6.2 7.2 89 0.8 NNE 11 17 6 9 - - 0.8
28/08:30am 8.7 6.0 7.2 90 0.7 NE 11 19 6 10 - - 0.8
28/08:00am 8.4 6.4 6.9 90 0.7 NE 7 11 4 6 - - 0.8
28/07:30am 8.1 6.2 6.6 90 0.7 NNE 6 11 3 6 - - 0.8
28/07:00am 8.2 6.1 6.7 90 0.7 NE 7 11 4 6 - - 0.8
28/06:30am 8.0 6.1 6.6 91 0.6 NNE 6 9 3 5 - - 0.8
28/06:00am 7.7 5.1 6.3 91 0.6 NE 9 13 5 7 - - 0.8
28/05:30am 7.7 5.5 6.2 90 0.7 NNE 7 13 4 7 - - 0.8
28/05:00am 7.3 5.2 5.8 90 0.7 NNW 6 13 3 7 - - 0.8
28/04:30am 7.3 4.6 5.8 90 0.7 NE 9 13 5 7 - - 0.8
28/04:00am 7.5 4.5 6.0 90 0.7 NE 11 15 6 8 - - 0.8
28/03:30am 7.4 4.4 5.9 90 0.7 NE 11 17 6 9 - - 0.8
28/03:00am 7.3 3.9 5.8 90 0.7 NE 13 17 7 9 - - 0.8
28/02:30am 7.4 4.4 5.9 90 0.7 NE 11 15 6 8 - - 0.8
28/02:00am 7.5 4.5 6.0 90 0.7 NE 11 17 6 9 - - 0.8
28/01:30am 7.6 4.2 6.1 90 0.7 NE 13 17 7 9 - - 0.8
28/01:00am 7.6 5.0 6.1 90 0.7 NE 9 13 5 7 - - 0.8
28/12:30am 7.4 4.8 5.9 90 0.7 NE 9 11 5 6 - - 0.8
28/12:00am 7.4 4.7 5.7 89 0.8 NE 9 11 5 6 - - 0.6
 
Date/Time
CST
Temp
°C
App
Temp
°C
Dew
Point
Rel
Hum
%
Delta-T
°C
Wind Press
QNH
hPa
Press
MSL
hPa
Rain
since 9 am
mm
Dir
 
Spd
km/h
Gust
km/h
Spd
kts
Gust
kts
27/11:30pm 7.3 5.0 5.6 89 0.8 NE 7 11 4 6 - - 0.6
27/11:00pm 7.7 5.1 6.0 89 0.8 NE 9 11 5 6 - - 0.6
27/10:30pm 7.7 5.1 6.0 89 0.8 NE 9 11 5 6 - - 0.6
27/10:00pm 7.9 5.7 6.2 89 0.8 NE 7 9 4 5 - - 0.6
27/09:30pm 7.7 5.4 5.8 88 0.9 NE 7 9 4 5 - - 0.6
27/09:00pm 8.1 5.5 6.2 88 0.9 NE 9 11 5 6 - - 0.6
27/08:30pm 8.2 6.2 6.2 87 0.9 NNE 6 9 3 5 - - 0.6
27/08:00pm 8.2 6.0 6.2 87 0.9 NE 7 9 4 5 - - 0.2
27/07:30pm 8.4 6.8 6.2 86 1.0 ENE 4 4 2 2 - - 0.2
27/07:00pm 8.8 7.6 6.4 85 1.1 ESE 2 2 1 1 - - 0.2
27/06:30pm 9.3 8.2 6.9 85 1.1 SSE 2 2 1 1 - - 0.2
27/06:00pm 9.6 7.7 6.9 83 1.3 WSW 6 11 3 6 - - 0.2
27/05:30pm 10.9 8.3 6.3 73 2.2 W 9 20 5 11 - - 0.0
27/05:00pm 11.6 9.3 5.9 68 2.7 WNW 7 11 4 6 - - 0.0
27/04:30pm 11.4 8.8 6.1 70 2.5 WNW 9 15 5 8 - - 0.0
27/04:00pm 12.2 9.7 6.5 68 2.7 W 9 15 5 8 - - 0.0
27/03:30pm 12.2 8.8 5.8 65 3.0 W 13 19 7 10 - - 0.0
27/03:00pm 12.5 9.4 5.4 62 3.3 W 11 19 6 10 - - 0.0
27/02:30pm 12.7 9.2 5.4 61 3.4 W 13 20 7 11 - - 0.0
27/02:00pm 12.6 10.0 6.0 64 3.1 NW 9 15 5 8 - - 0.0
27/01:30pm 12.4 9.6 7.1 70 2.6 NNW 11 19 6 10 - - 0.0
27/01:00pm 12.3 9.3 6.1 66 2.9 NW 11 20 6 11 - - 0.0
27/12:30pm 12.5 10.3 6.3 66 2.9 NW 7 13 4 7 - - 0.0
27/12:00pm 11.7 9.4 5.8 67 2.8 NNW 7 13 4 7 - - 0.0
27/11:30am 11.1 9.2 6.6 74 2.1 N 6 9 3 5 - - 0.0
27/11:00am 10.6 8.0 6.0 73 2.1 WNW 9 13 5 7 - - 0.0
27/10:30am 10.9 8.7 6.3 73 2.2 N 7 11 4 6 - - 0.0
27/10:00am 9.4 7.5 6.5 82 1.4 NE 6 9 3 5 - - 0.0
27/09:30am 9.3 7.0 5.9 79 1.6 NNE 7 11 4 6 - - 0.0
27/09:00am 7.9 5.1 5.2 83 1.2 NE 9 13 5 7 - - 1.4
27/08:30am 6.6 3.6 4.3 85 1.0 NE 9 13 5 7 - - 1.4
27/08:00am 6.3 3.3 4.0 85 1.0 NE 9 13 5 7 - - 1.4
27/07:30am 5.9 2.8 3.6 85 1.0 NE 9 11 5 6 - - 1.4
27/07:00am 6.2 3.2 3.9 85 1.0 NE 9 15 5 8 - - 1.4
27/06:30am 6.0 3.4 4.0 87 0.9 ENE 7 11 4 6 - - 1.4
27/06:00am 5.4 1.9 3.6 88 0.8 NE 11 13 6 7 - - 1.4
27/05:30am 5.3 1.8 3.6 89 0.7 NE 11 13 6 7 - - 1.4
27/05:00am 4.8 2.2 3.1 89 0.7 NE 6 7 3 4 - - 1.4
27/04:30am 4.5 1.8 2.7 88 0.7 ENE 6 7 3 4 - - 1.4
27/04:00am 4.8 2.5 3.0 88 0.7 ENE 4 4 2 2 - - 1.2
27/03:30am 4.8 2.5 3.0 88 0.7 ENE 4 4 2 2 - - 1.2
27/03:00am 5.0 2.8 3.2 88 0.7 ENE 4 6 2 3 - - 1.2
27/02:30am 5.0 2.7 3.0 87 0.8 ENE 4 6 2 3 - - 1.2
27/02:00am 5.5 3.7 3.5 87 0.8 ESE 2 4 1 2 - - 1.2
27/01:30am 5.7 3.6 3.7 87 0.8 ESE 4 6 2 3 - - 1.2
27/01:00am 5.5 3.3 3.2 85 1.0 ESE 4 6 2 3 - - 1.2
27/12:30am 6.3 4.6 4.0 85 1.0 SE 2 4 1 2 - - 1.2
27/12:00am 6.7 4.3 4.4 85 1.0 SE 6 11 3 6 - - 1.2
 
Date/Time
CST
Temp
°C
App
Temp
°C
Dew
Point
Rel
Hum
%
Delta-T
°C
Wind Press
QNH
hPa
Press
MSL
hPa
Rain
since 9 am
mm
Dir
 
Spd
km/h
Gust
km/h
Spd
kts
Gust
kts
26/11:30pm 6.8 4.8 4.5 85 1.0 E 4 7 2 4 - - 0.8
26/11:00pm 6.8 4.8 4.3 84 1.1 ESE 4 6 2 3 - - 0.6
26/10:30pm 6.9 4.9 4.2 83 1.2 ESE 4 6 2 3 - - 0.6
26/10:00pm 7.7 6.2 4.8 82 1.3 S 2 6 1 3 - - 0.6
26/09:30pm 8.1 5.9 5.2 82 1.3 SSW 6 9 3 5 - - 0.6
26/09:00pm 8.2 3.8 5.0 80 1.4 SW 17 32 9 17 - - 0.4
26/08:30pm 8.3 5.8 3.8 73 1.9 SSW 6 11 3 6 - - 0.0
26/08:00pm 9.1 5.7 3.9 70 2.3 SW 11 17 6 9 - - 0.0
26/07:30pm 9.2 5.7 3.4 67 2.5 SSW 11 17 6 9 - - 0.0
26/07:00pm 9.9 4.7 2.7 61 3.1 SW 19 28 10 15 - - 0.0
26/06:30pm 10.1 4.7 2.2 58 3.4 SW 20 30 11 16 - - 0.0
26/06:00pm 9.4 6.7 3.6 67 2.5 SSW 7 13 4 7 - - 0.0
26/05:30pm 9.7 5.1 1.6 57 3.4 WSW 15 26 8 14 - - 0.0
26/05:00pm 9.6 4.6 4.4 70 2.3 SW 20 35 11 19 - - 0.0
26/04:30pm 10.9 5.4 2.0 54 3.8 WSW 20 28 11 15 - - 0.0
26/04:00pm 11.0 5.4 3.5 60 3.3 SW 22 37 12 20 - - 0.0
26/03:30pm 11.6 6.3 3.1 56 3.7 WSW 20 32 11 17 - - 0.0
26/03:00pm 11.2 5.5 3.0 57 3.6 WSW 22 33 12 18 - - 0.0

Other Formats:

Comma delimited format used in spreadsheet applications
http://www.bom.gov.au/fwo/IDS60801/IDS60801.94808.axf

JavaScript Object Notation format (JSON) in row-major order
http://www.bom.gov.au/fwo/IDS60801/IDS60801.94808.json